Terminal Aerodrome Forecast
Issued by NWS

Home | Current Version | Previous Version | Text Only | Print | Product List | Glossary On
Versions: 1 2 3 4 5 6 7 8 9 10 11 12 13 14 15
000
FTUS41 KPBZ 081504 AAA
TAFLBE
TAF AMD
KLBE 081504Z 0815/0912 14012KT P6SM BKN100
     FM082000 14005KT P6SM -RA OVC035
     FM082200 16005KT 3SM -RASN OVC015
     FM090000 20005KT P6SM VCSH OVC025
     FM090600 22004KT 2SM -SHSN OVC010=

USA.gov is the U.S. government's official web portal to all federal, state and local government web resources and services.